Time;durP1;ratioP1;P1;durP2;ratioP2;P2;SDS_P1;SDS_P2;PMS_P1;PMS_P2;Temp;Humidity;BMP_temperature;BMP_pressure;BME280_temperature;BME280_humidity;BME280_pressure;Samples;Min_cycle;Max_cycle;Signal;HPM_P1;HPM_P2
2021/05/14 00:01:49;;;;;;;8.10;7.80;;;11.60;99.90;;;;;;4954252;29;20514;-69
2021/05/14 00:04:16;;;;;;;8.53;8.23;;;11.60;99.90;;;;;;4954042;29;20961;-68
2021/05/14 00:06:42;;;;;;;9.20;8.90;;;11.60;99.90;;;;;;4954114;29;20491;-69
2021/05/14 00:09:08;;;;;;;8.77;8.47;;;11.60;99.90;;;;;;4953615;29;20460;-68
2021/05/14 00:11:35;;;;;;;8.63;8.33;;;11.60;99.90;;;;;;4954464;29;20506;-68
2021/05/14 00:14:01;;;;;;;8.60;8.30;;;11.60;99.90;;;;;;4954194;29;20954;-68
2021/05/14 00:16:28;;;;;;;9.60;8.90;;;11.60;99.90;;;;;;4954242;29;20462;-68
2021/05/14 00:18:54;;;;;;;8.73;8.27;;;11.60;99.90;;;;;;4954127;29;20452;-68
2021/05/14 00:21:20;;;;;;;8.80;8.40;;;11.50;99.90;;;;;;4953924;29;20459;-67
2021/05/14 00:23:46;;;;;;;8.63;8.43;;;11.50;99.90;;;;;;4954128;29;20529;-68
2021/05/14 00:26:12;;;;;;;8.90;8.60;;;11.60;99.90;;;;;;4953894;29;20449;-68
2021/05/14 00:28:39;;;;;;;8.80;8.50;;;11.50;99.90;;;;;;4954099;29;20890;-69
2021/05/14 00:31:06;;;;;;;8.63;8.23;;;11.50;99.90;;;;;;4954200;29;20499;-68
2021/05/14 00:33:32;;;;;;;8.27;7.97;;;11.60;99.90;;;;;;4953766;29;20452;-68
2021/05/14 00:35:58;;;;;;;8.60;8.30;;;11.60;99.90;;;;;;4953917;29;20452;-67
2021/05/14 00:38:24;;;;;;;8.60;8.30;;;11.60;99.90;;;;;;4953656;29;20452;-68
2021/05/14 00:40:50;;;;;;;8.90;8.50;;;11.70;99.90;;;;;;4953898;29;20448;-68
2021/05/14 00:43:16;;;;;;;8.77;8.47;;;11.70;99.90;;;;;;4953924;29;20937;-67
2021/05/14 00:45:43;;;;;;;8.90;8.60;;;11.50;99.90;;;;;;4953348;29;20479;-68
2021/05/14 00:48:10;;;;;;;8.67;8.17;;;11.60;99.90;;;;;;4953490;29;20453;-68
2021/05/14 00:50:36;;;;;;;8.30;8.00;;;11.60;99.90;;;;;;4953488;29;20499;-68
2021/05/14 00:53:02;;;;;;;8.60;8.30;;;11.60;99.90;;;;;;4953884;29;20448;-68
2021/05/14 00:55:29;;;;;;;9.30;8.90;;;11.60;99.90;;;;;;4953296;29;20462;-68
2021/05/14 00:57:55;;;;;;;9.10;8.70;;;11.50;99.90;;;;;;4953599;29;20459;-68
2021/05/14 01:00:22;;;;;;;8.63;8.33;;;11.50;99.90;;;;;;4953454;29;20955;-68
2021/05/14 01:02:51;;;;;;;9.00;8.70;;;11.50;99.90;;;;;;4953322;29;20454;-67
2021/05/14 01:05:18;;;;;;;8.97;8.67;;;11.50;99.90;;;;;;4952637;28;20449;-67
2021/05/14 01:07:44;;;;;;;8.60;8.30;;;11.50;99.90;;;;;;4953164;29;20776;-67
2021/05/14 01:10:11;;;;;;;9.20;8.80;;;11.40;99.90;;;;;;4953324;29;20546;-67
2021/05/14 01:12:37;;;;;;;9.43;9.03;;;11.40;99.90;;;;;;4953265;29;20460;-67
2021/05/14 01:15:04;;;;;;;9.17;8.87;;;11.40;99.90;;;;;;4953151;29;20457;-67
2021/05/14 01:17:31;;;;;;;10.27;9.77;;;11.40;99.90;;;;;;4952958;29;20475;-68
2021/05/14 01:19:58;;;;;;;9.87;9.37;;;11.40;99.90;;;;;;4953242;29;20448;-68
2021/05/14 01:22:27;;;;;;;9.00;8.70;;;11.40;99.90;;;;;;4953016;29;20587;-67
2021/05/14 01:24:53;;;;;;;9.70;9.20;;;11.30;99.90;;;;;;4952436;29;20496;-66
2021/05/14 01:27:20;;;;;;;9.27;8.87;;;11.40;99.90;;;;;;4952635;29;20875;-66
2021/05/14 01:29:46;;;;;;;9.90;9.30;;;11.40;99.90;;;;;;4952501;29;20492;-66
2021/05/14 01:32:14;;;;;;;9.70;9.20;;;11.40;99.90;;;;;;4952499;29;20456;-67
2021/05/14 01:34:40;;;;;;;9.57;9.07;;;11.40;99.90;;;;;;4952359;29;20934;-67
2021/05/14 01:37:06;;;;;;;11.07;10.27;;;11.40;99.90;;;;;;4952507;29;20460;-67
2021/05/14 01:39:34;;;;;;;9.93;9.53;;;11.40;99.90;;;;;;4952485;29;20515;-66
2021/05/14 01:42:01;;;;;;;9.83;9.30;;;11.30;99.90;;;;;;4952501;29;20459;-67
2021/05/14 01:44:28;;;;;;;9.60;9.20;;;11.30;99.90;;;;;;4952418;29;20448;-67
2021/05/14 01:46:54;;;;;;;10.07;9.57;;;11.20;99.90;;;;;;4952266;29;20461;-66
2021/05/14 01:49:20;;;;;;;10.30;9.70;;;11.20;99.90;;;;;;4952443;29;20460;-67
2021/05/14 01:51:47;;;;;;;9.33;8.93;;;11.10;99.90;;;;;;4952208;29;20547;-67
2021/05/14 01:54:13;;;;;;;9.27;8.97;;;11.10;99.90;;;;;;4952329;29;20455;-67
2021/05/14 01:56:44;;;;;;;10.00;9.60;;;11.10;99.90;;;;;;4952231;29;20481;-67
2021/05/14 01:59:10;;;;;;;11.40;9.40;;;11.10;99.90;;;;;;4952330;29;20463;-67
2021/05/14 02:01:36;;;;;;;9.87;9.37;;;11.10;99.90;;;;;;4952268;29;20444;-67
2021/05/14 02:04:03;;;;;;;10.30;9.70;;;11.10;99.90;;;;;;4952090;29;20457;-67
2021/05/14 02:06:29;;;;;;;9.97;9.50;;;11.00;99.90;;;;;;4952046;29;20484;-67
2021/05/14 02:08:55;;;;;;;9.73;9.27;;;11.00;99.90;;;;;;4951975;29;20875;-66
2021/05/14 02:11:21;;;;;;;10.10;9.70;;;11.00;99.90;;;;;;4952072;29;20488;-67
2021/05/14 02:13:48;;;;;;;9.53;9.23;;;10.90;99.90;;;;;;4952169;29;20484;-66
2021/05/14 02:16:15;;;;;;;11.23;10.67;;;10.90;99.90;;;;;;4953303;28;20451;-67
2021/05/14 02:18:41;;;;;;;9.60;9.30;;;10.80;99.90;;;;;;4958203;28;20519;-68
2021/05/14 02:21:08;;;;;;;9.90;9.40;;;10.70;99.90;;;;;;4958297;28;20859;-67
2021/05/14 02:23:34;;;;;;;9.40;9.10;;;10.70;99.90;;;;;;4958358;29;20455;-68
2021/05/14 02:26:00;;;;;;;10.10;9.70;;;10.60;99.90;;;;;;4958386;29;20452;-66
2021/05/14 02:28:27;;;;;;;10.33;9.93;;;10.60;99.90;;;;;;4958327;29;20825;-67
2021/05/14 02:30:54;;;;;;;9.80;9.43;;;10.50;99.90;;;;;;4958201;29;21002;-66
2021/05/14 02:33:20;;;;;;;9.33;9.03;;;10.40;99.90;;;;;;4958345;28;20460;-67
2021/05/14 02:35:46;;;;;;;10.53;9.80;;;10.40;99.90;;;;;;4958108;28;20452;-66
2021/05/14 02:38:12;;;;;;;9.33;9.03;;;10.40;99.90;;;;;;4958100;29;20450;-67
2021/05/14 02:40:39;;;;;;;9.43;9.03;;;10.40;99.90;;;;;;4958069;28;20626;-66
2021/05/14 02:43:05;;;;;;;10.10;9.70;;;10.40;99.90;;;;;;4958387;29;20452;-66
2021/05/14 02:45:31;;;;;;;9.20;8.90;;;10.30;99.90;;;;;;4958055;29;20814;-66
2021/05/14 02:47:58;;;;;;;9.67;9.20;;;10.30;99.90;;;;;;4958120;28;20449;-67
2021/05/14 02:50:25;;;;;;;10.07;9.47;;;10.40;99.90;;;;;;4957944;29;20543;-67
2021/05/14 02:52:51;;;;;;;9.20;8.80;;;10.40;99.90;;;;;;4958216;29;20515;-66
2021/05/14 02:55:17;;;;;;;9.20;8.80;;;10.40;99.90;;;;;;4958102;28;20447;-67
2021/05/14 02:57:44;;;;;;;10.10;9.50;;;10.40;99.90;;;;;;4958123;29;20474;-67
2021/05/14 03:00:12;;;;;;;9.90;9.60;;;10.50;99.90;;;;;;4957893;29;20452;-67
2021/05/14 03:02:38;;;;;;;9.90;9.60;;;10.50;99.90;;;;;;4957845;29;20466;-66
2021/05/14 03:05:07;;;;;;;9.50;9.13;;;10.40;99.90;;;;;;4958109;28;20869;-65
2021/05/14 03:07:34;;;;;;;9.93;9.43;;;10.40;99.90;;;;;;4958252;28;20460;-68
2021/05/14 03:10:00;;;;;;;11.27;10.77;;;10.40;99.90;;;;;;4957798;29;20542;-68
2021/05/14 03:12:27;;;;;;;10.23;9.83;;;10.40;99.90;;;;;;4957833;28;20691;-69
2021/05/14 03:14:53;;;;;;;10.03;9.63;;;10.40;99.90;;;;;;4958008;29;20579;-68
2021/05/14 03:17:19;;;;;;;11.00;10.50;;;10.30;99.90;;;;;;4958105;29;20467;-67
2021/05/14 03:19:45;;;;;;;9.70;9.20;;;10.30;99.90;;;;;;4957561;28;20460;-68
2021/05/14 03:22:12;;;;;;;9.83;9.43;;;10.30;99.90;;;;;;4957838;28;20507;-68
2021/05/14 03:24:39;;;;;;;10.10;9.70;;;10.30;99.90;;;;;;4957592;28;20684;-68
2021/05/14 03:27:05;;;;;;;10.77;10.37;;;10.30;99.90;;;;;;4958111;28;20454;-68
2021/05/14 03:29:31;;;;;;;8.90;8.60;;;10.30;99.90;;;;;;4954319;28;20531;-69
2021/05/14 03:31:59;;;;;;;9.90;9.50;;;10.20;99.90;;;;;;4954598;29;20499;-68
2021/05/14 03:34:25;;;;;;;9.83;9.37;;;10.20;99.90;;;;;;4954816;29;20516;-69
2021/05/14 03:36:51;;;;;;;11.03;10.43;;;10.10;99.90;;;;;;4954765;29;20456;-68
2021/05/14 03:39:22;;;;;;;9.77;9.43;;;10.10;99.90;;;;;;4954725;29;20452;-68
2021/05/14 03:41:49;;;;;;;11.00;10.60;;;10.00;99.90;;;;;;4954658;29;20457;-69
2021/05/14 03:44:15;;;;;;;10.47;10.10;;;10.00;99.90;;;;;;4954717;29;20456;-67
2021/05/14 03:46:41;;;;;;;11.13;10.57;;;10.00;99.90;;;;;;4954475;29;20464;-68
2021/05/14 03:49:07;;;;;;;10.77;10.23;;;10.00;99.90;;;;;;4954580;29;20459;-69
2021/05/14 03:51:37;;;;;;;10.60;10.20;;;10.00;99.90;;;;;;4954472;29;20498;-68
2021/05/14 03:54:05;;;;;;;10.80;10.07;;;10.00;99.90;;;;;;4954549;29;20455;-68
2021/05/14 03:56:33;;;;;;;10.33;9.83;;;10.00;99.90;;;;;;4954112;29;20472;-68
2021/05/14 03:59:00;;;;;;;9.50;9.10;;;10.00;99.90;;;;;;4953202;28;20468;-67
2021/05/14 04:01:27;;;;;;;9.50;9.00;;;10.00;99.90;;;;;;4958572;28;20876;-68
2021/05/14 04:03:54;;;;;;;9.83;9.33;;;10.00;99.90;;;;;;4962262;28;20452;-67
2021/05/14 04:06:20;;;;;;;9.63;9.23;;;10.00;99.90;;;;;;4957893;28;20456;-69
2021/05/14 04:08:46;;;;;;;10.30;9.80;;;9.90;99.90;;;;;;4954207;29;20461;-68
2021/05/14 04:11:51;;;;;;;9.93;9.53;;;9.90;99.90;;;;;;4958322;28;20494;-68
2021/05/14 04:14:30;;;;;;;10.07;9.57;;;9.80;99.90;;;;;;4961861;28;20444;-68
2021/05/14 04:16:57;;;;;;;10.13;9.73;;;9.80;99.90;;;;;;4962205;28;20451;-69
2021/05/14 04:19:24;;;;;;;10.30;9.67;;;9.80;99.90;;;;;;4956284;28;20480;-68
2021/05/14 04:21:52;;;;;;;9.97;9.50;;;9.80;99.90;;;;;;4953940;29;20469;-67
2021/05/14 04:24:19;;;;;;;9.73;9.33;;;9.70;99.90;;;;;;4953762;29;20507;-68
2021/05/14 04:26:45;;;;;;;8.73;8.43;;;9.70;99.90;;;;;;4953654;29;20944;-68
2021/05/14 04:29:11;;;;;;;10.03;9.63;;;9.70;99.90;;;;;;4953647;29;20461;-68
2021/05/14 04:31:38;;;;;;;10.37;9.57;;;9.70;99.90;;;;;;4953743;29;20491;-68
2021/05/14 04:34:04;;;;;;;10.23;9.83;;;9.70;99.90;;;;;;4953517;29;20480;-67
2021/05/14 04:36:30;;;;;;;10.23;9.83;;;9.70;99.90;;;;;;4953636;29;20504;-68
2021/05/14 04:38:57;;;;;;;8.70;8.30;;;9.90;99.90;;;;;;4953405;28;20464;-68
2021/05/14 04:41:23;;;;;;;10.07;9.47;;;10.20;99.90;;;;;;4952521;29;20947;-68
2021/05/14 04:43:49;;;;;;;9.73;9.20;;;10.70;99.90;;;;;;4953558;29;20464;-68
2021/05/14 04:46:15;;;;;;;9.90;9.50;;;11.10;99.90;;;;;;4953282;29;20802;-68
2021/05/14 04:48:43;;;;;;;9.83;9.37;;;11.60;99.90;;;;;;4953329;29;20448;-68
2021/05/14 04:51:09;;;;;;;10.43;9.60;;;12.10;99.90;;;;;;4953298;29;20484;-68
2021/05/14 04:53:36;;;;;;;10.70;9.93;;;12.30;99.90;;;;;;4953492;29;20460;-69
2021/05/14 04:56:03;;;;;;;10.10;9.60;;;12.50;99.90;;;;;;4953578;29;20456;-69
2021/05/14 04:58:29;;;;;;;9.33;8.93;;;12.60;99.90;;;;;;4953488;29;20452;-69
2021/05/14 05:00:55;;;;;;;9.60;9.30;;;12.50;99.90;;;;;;4952947;29;20942;-68
2021/05/14 05:03:22;;;;;;;9.83;9.33;;;12.40;99.90;;;;;;4953032;29;20531;-69
2021/05/14 05:05:50;;;;;;;9.87;9.30;;;12.50;99.90;;;;;;4953217;29;20464;-68
2021/05/14 05:08:16;;;;;;;9.37;9.00;;;12.60;99.90;;;;;;4953253;29;20453;-68
2021/05/14 05:10:43;;;;;;;10.07;9.37;;;12.70;99.90;;;;;;4952726;29;21002;-69
2021/05/14 05:13:09;;;;;;;10.03;9.63;;;13.00;99.90;;;;;;4953072;29;20507;-70
2021/05/14 05:15:35;;;;;;;9.77;9.23;;;13.20;99.90;;;;;;4952911;29;20496;-70
2021/05/14 05:18:01;;;;;;;10.50;9.90;;;13.40;99.90;;;;;;4952914;29;20816;-71
2021/05/14 05:20:27;;;;;;;9.70;9.30;;;13.60;99.90;;;;;;4952767;29;20444;-70
2021/05/14 05:22:55;;;;;;;10.77;10.27;;;13.60;99.90;;;;;;4949934;29;20476;-70
2021/05/14 05:25:21;;;;;;;10.97;10.27;;;13.50;99.90;;;;;;4952375;29;20902;-69
2021/05/14 05:27:48;;;;;;;9.60;9.30;;;13.70;99.90;;;;;;4953087;29;20453;-69
2021/05/14 05:30:16;;;;;;;10.20;9.80;;;13.90;99.90;;;;;;4952738;29;20480;-69
2021/05/14 05:32:43;;;;;;;10.07;9.63;;;14.30;99.90;;;;;;4952804;29;20559;-69
2021/05/14 05:35:10;;;;;;;10.00;9.30;;;14.60;99.90;;;;;;4952565;29;20928;-69
2021/05/14 05:37:36;;;;;;;10.80;10.40;;;14.60;99.90;;;;;;4953027;29;20809;-70
2021/05/14 05:40:05;;;;;;;10.03;9.73;;;14.60;99.90;;;;;;4952917;29;20453;-70
2021/05/14 05:42:31;;;;;;;9.97;9.53;;;14.70;99.90;;;;;;4952407;29;20962;-70
2021/05/14 05:44:57;;;;;;;10.30;9.90;;;14.40;99.90;;;;;;4952249;29;20943;-70
2021/05/14 05:47:23;;;;;;;11.13;10.63;;;14.60;99.90;;;;;;4952499;29;20464;-70
2021/05/14 05:49:50;;;;;;;10.40;10.03;;;14.90;99.90;;;;;;4952788;29;20455;-69
2021/05/14 05:52:16;;;;;;;11.80;11.00;;;14.70;99.90;;;;;;4952092;28;20456;-69
2021/05/14 05:54:42;;;;;;;9.47;8.97;;;14.90;99.90;;;;;;4952331;29;20488;-69
2021/05/14 05:57:09;;;;;;;10.70;10.20;;;15.60;99.50;;;;;;4952091;29;20465;-70
2021/05/14 05:59:38;;;;;;;9.67;9.30;;;16.00;98.30;;;;;;4952723;29;20456;-70
2021/05/14 06:02:05;;;;;;;9.60;9.10;;;16.40;97.40;;;;;;4952617;29;20556;-70
2021/05/14 06:04:31;;;;;;;11.77;11.13;;;16.20;97.20;;;;;;4952186;29;20951;-70
2021/05/14 06:06:57;;;;;;;10.73;10.30;;;16.10;97.70;;;;;;4952283;29;20453;-69
2021/05/14 06:09:24;;;;;;;10.07;9.73;;;16.40;97.50;;;;;;4952189;29;20448;-70
2021/05/14 06:11:50;;;;;;;11.37;10.97;;;16.70;96.50;;;;;;4952129;29;20500;-70
2021/05/14 06:14:17;;;;;;;10.20;9.90;;;16.50;96.80;;;;;;4952289;29;20571;-70
2021/05/14 06:16:43;;;;;;;10.40;10.00;;;16.70;96.70;;;;;;4952007;29;20448;-70
2021/05/14 06:19:13;;;;;;;10.00;9.67;;;16.70;96.30;;;;;;4952085;29;20460;-70
2021/05/14 06:21:45;;;;;;;10.80;10.40;;;16.80;96.60;;;;;;4952064;29;20567;-70
2021/05/14 06:24:11;;;;;;;10.60;10.10;;;17.50;95.80;;;;;;4952013;29;20551;-69
2021/05/14 06:26:37;;;;;;;10.20;9.80;;;17.50;94.90;;;;;;4951866;29;20464;-68
2021/05/14 06:29:04;;;;;;;10.20;9.90;;;17.60;95.10;;;;;;4952301;29;20464;-67
2021/05/14 06:31:31;;;;;;;10.40;10.03;;;17.40;94.80;;;;;;4951707;29;20496;-67
2021/05/14 06:33:57;;;;;;;9.80;9.40;;;17.30;95.00;;;;;;4951977;29;20854;-67
2021/05/14 06:36:23;;;;;;;10.73;10.33;;;17.70;94.50;;;;;;4951954;29;20479;-68
2021/05/14 06:38:49;;;;;;;11.33;10.77;;;18.20;94.50;;;;;;4952141;29;20467;-68
2021/05/14 06:41:16;;;;;;;11.10;10.30;;;18.90;93.20;;;;;;4951956;29;20483;-68
2021/05/14 06:43:42;;;;;;;10.80;10.40;;;19.00;92.30;;;;;;4951951;29;20445;-68
2021/05/14 06:46:08;;;;;;;10.43;10.13;;;18.80;92.20;;;;;;4952120;29;20453;-69
2021/05/14 06:48:35;;;;;;;11.00;10.50;;;18.70;92.80;;;;;;4952189;29;20460;-69
2021/05/14 06:51:01;;;;;;;10.93;10.43;;;19.50;91.90;;;;;;4952030;29;20495;-68
2021/05/14 06:53:28;;;;;;;10.63;10.23;;;20.00;90.50;;;;;;4951963;29;20819;-69
2021/05/14 06:55:54;;;;;;;11.60;11.10;;;19.90;90.70;;;;;;4951672;29;20970;-69
2021/05/14 06:58:20;;;;;;;11.30;10.70;;;20.10;90.30;;;;;;4952183;29;20497;-69
2021/05/14 07:00:46;;;;;;;10.70;10.30;;;20.20;89.30;;;;;;4951990;29;20444;-68
2021/05/14 07:03:12;;;;;;;11.23;10.80;;;19.50;90.50;;;;;;4952474;28;20829;-69
2021/05/14 07:05:39;;;;;;;10.37;9.87;;;19.50;90.30;;;;;;4955464;29;21014;-69
2021/05/14 07:08:06;;;;;;;10.30;10.00;;;20.00;90.30;;;;;;4955427;29;20455;-69
2021/05/14 07:10:32;;;;;;;10.27;9.93;;;20.60;89.00;;;;;;4955458;29;20491;-69
2021/05/14 07:12:58;;;;;;;10.47;10.07;;;21.10;87.30;;;;;;4955447;29;20523;-69
2021/05/14 07:15:24;;;;;;;11.40;10.80;;;21.80;84.20;;;;;;4955474;29;20459;-69
2021/05/14 07:17:52;;;;;;;10.40;10.10;;;21.80;82.70;;;;;;4955459;29;20459;-70
2021/05/14 07:20:20;;;;;;;12.20;11.70;;;22.10;82.50;;;;;;4955168;29;20475;-70
2021/05/14 07:22:47;;;;;;;11.23;10.83;;;22.60;81.20;;;;;;4955061;29;20476;-70
2021/05/14 07:25:13;;;;;;;11.07;10.67;;;23.10;79.20;;;;;;4954901;29;20715;-70
2021/05/14 07:27:40;;;;;;;10.73;10.40;;;23.20;77.30;;;;;;4955061;29;20878;-69
2021/05/14 07:30:09;;;;;;;11.40;11.00;;;22.80;76.50;;;;;;4955206;29;20507;-69
2021/05/14 07:32:35;;;;;;;11.00;10.60;;;21.90;78.50;;;;;;4955412;29;20484;-69
2021/05/14 07:35:01;;;;;;;11.20;10.80;;;21.70;80.10;;;;;;4952981;29;20452;-69
2021/05/14 07:37:27;;;;;;;10.30;10.00;;;22.20;80.10;;;;;;4955181;29;20867;-69
2021/05/14 07:39:55;;;;;;;10.43;9.97;;;22.60;76.90;;;;;;4955138;29;20464;-69
2021/05/14 07:42:21;;;;;;;10.73;10.43;;;22.10;77.30;;;;;;4955106;29;21278;-69
2021/05/14 07:44:47;;;;;;;10.10;9.70;;;22.00;78.80;;;;;;4955247;29;20819;-69
2021/05/14 07:47:13;;;;;;;10.83;10.10;;;22.20;78.50;;;;;;4954884;29;21003;-69
2021/05/14 07:49:40;;;;;;;10.67;10.07;;;22.40;78.30;;;;;;4954846;29;20461;-69
2021/05/14 07:52:06;;;;;;;9.83;9.50;;;22.50;77.00;;;;;;4955065;29;20480;-69
2021/05/14 07:54:32;;;;;;;10.87;10.43;;;22.20;77.50;;;;;;4954994;29;20452;-69
2021/05/14 07:56:59;;;;;;;10.40;10.10;;;21.70;78.70;;;;;;4954831;29;20449;-69
2021/05/14 07:59:26;;;;;;;10.90;10.50;;;21.20;78.10;;;;;;4954637;29;20457;-69
2021/05/14 08:01:53;;;;;;;11.17;10.67;;;20.40;80.30;;;;;;4954767;29;20460;-68
2021/05/14 08:04:19;;;;;;;10.80;10.40;;;20.70;81.20;;;;;;4954820;29;20463;-69
2021/05/14 08:06:45;;;;;;;11.67;11.27;;;21.10;80.50;;;;;;4954626;29;20523;-70
2021/05/14 08:09:17;;;;;;;10.93;10.63;;;21.60;78.40;;;;;;4954636;29;20464;-70
2021/05/14 08:11:43;;;;;;;11.40;11.00;;;21.40;79.40;;;;;;4954358;29;21028;-70
2021/05/14 08:14:10;;;;;;;10.87;10.50;;;21.70;78.40;;;;;;4954033;28;20461;-70
2021/05/14 08:16:36;;;;;;;11.80;11.30;;;22.20;78.60;;;;;;4954834;29;20543;-71
2021/05/14 08:19:02;;;;;;;11.47;10.93;;;22.70;77.40;;;;;;4954491;29;20828;-70
2021/05/14 08:21:28;;;;;;;10.70;10.40;;;23.20;74.30;;;;;;4954182;29;20472;-70
2021/05/14 08:23:55;;;;;;;11.23;10.53;;;23.10;72.00;;;;;;4954034;29;20484;-70
2021/05/14 08:26:21;;;;;;;10.30;10.00;;;22.20;73.50;;;;;;4954384;29;20449;-70
2021/05/14 08:28:47;;;;;;;9.37;9.07;;;21.60;75.50;;;;;;4954407;29;20870;-70
2021/05/14 08:31:15;;;;;;;10.90;10.53;;;21.30;76.40;;;;;;4954165;29;20488;-70
2021/05/14 08:33:41;;;;;;;11.10;10.60;;;21.10;77.20;;;;;;4953859;29;20545;-70
2021/05/14 08:36:09;;;;;;;10.20;9.90;;;21.30;77.20;;;;;;4954117;29;20464;-70
2021/05/14 08:38:35;;;;;;;10.43;10.13;;;20.90;79.70;;;;;;4954174;29;20449;-71
2021/05/14 08:41:06;;;;;;;11.17;10.77;;;21.40;79.50;;;;;;4954034;29;20814;-71
2021/05/14 08:43:32;;;;;;;11.43;11.03;;;22.90;73.60;;;;;;4953956;29;20448;-71
2021/05/14 08:46:02;;;;;;;11.43;11.03;;;24.70;70.80;;;;;;4953824;29;20452;-71
2021/05/14 08:48:30;;;;;;;10.97;10.60;;;26.90;62.70;;;;;;4953692;29;20483;-71
2021/05/14 08:50:57;;;;;;;11.33;10.80;;;25.60;62.80;;;;;;4953591;29;20488;-69
2021/05/14 08:53:23;;;;;;;10.93;10.50;;;24.20;65.70;;;;;;4953693;29;20946;-67
2021/05/14 08:55:49;;;;;;;11.43;10.50;;;23.60;69.10;;;;;;4953831;29;20457;-67
2021/05/14 08:58:15;;;;;;;11.93;11.43;;;22.90;69.30;;;;;;4953533;29;20444;-68
2021/05/14 09:00:41;;;;;;;10.53;10.23;;;22.50;69.10;;;;;;4953493;29;20453;-70
2021/05/14 09:03:09;;;;;;;10.50;10.20;;;22.20;70.30;;;;;;4953256;29;20449;-70
2021/05/14 09:05:37;;;;;;;11.50;11.10;;;22.00;70.80;;;;;;4953669;29;20456;-70
2021/05/14 09:08:04;;;;;;;11.30;10.80;;;21.80;72.00;;;;;;4953499;29;20464;-68
2021/05/14 09:10:32;;;;;;;10.77;10.47;;;22.30;71.00;;;;;;4953474;29;20496;-68
2021/05/14 09:12:59;;;;;;;10.77;10.43;;;22.40;70.70;;;;;;4953332;29;20970;-68
2021/05/14 09:15:28;;;;;;;10.57;10.20;;;22.20;70.50;;;;;;4951324;29;20444;-69
2021/05/14 09:18:05;;;;;;;11.57;11.13;;;22.10;70.70;;;;;;4953011;29;20527;-69
2021/05/14 09:20:34;;;;;;;10.30;9.80;;;21.80;71.50;;;;;;4953259;28;20479;-69
2021/05/14 09:23:01;;;;;;;10.43;10.13;;;21.80;71.80;;;;;;4953074;28;20535;-69
2021/05/14 09:25:28;;;;;;;10.50;9.83;;;22.20;71.40;;;;;;4952951;28;20484;-69
2021/05/14 09:27:54;;;;;;;10.47;10.07;;;22.60;72.20;;;;;;4952964;29;20478;-69
2021/05/14 09:30:20;;;;;;;10.30;9.90;;;22.90;70.10;;;;;;4953297;29;20511;-68
2021/05/14 09:32:46;;;;;;;10.60;10.20;;;23.10;69.40;;;;;;4953019;29;20455;-69
2021/05/14 09:35:12;;;;;;;9.93;9.57;;;22.80;69.30;;;;;;4953130;28;20456;-69
2021/05/14 09:37:49;;;;;;;10.67;10.23;;;22.30;69.20;;;;;;4953595;28;20457;-69
2021/05/14 09:40:18;;;;;;;10.70;10.30;;;21.90;69.20;;;;;;4953274;28;20520;-70
2021/05/14 09:42:45;;;;;;;10.50;9.90;;;21.40;71.20;;;;;;4953107;28;20556;-69
2021/05/14 09:45:19;;;;;;;10.97;10.57;;;21.30;73.30;;;;;;4953011;28;20973;-68
2021/05/14 09:47:58;;;;;;;10.47;9.97;;;20.90;74.30;;;;;;4953294;28;20465;-69
2021/05/14 09:50:30;;;;;;;10.40;9.97;;;20.50;74.60;;;;;;4952850;29;20448;-68
2021/05/14 09:53:07;;;;;;;10.43;10.03;;;20.10;79.20;;;;;;4952986;29;20563;-68
2021/05/14 09:55:36;;;;;;;10.90;10.50;;;20.10;81.40;;;;;;4953209;29;20456;-68
2021/05/14 09:58:14;;;;;;;10.30;9.90;;;19.50;83.00;;;;;;4952926;29;20939;-68
2021/05/14 10:00:40;;;;;;;10.00;9.60;;;19.00;86.00;;;;;;4952680;29;20463;-68
2021/05/14 10:03:09;;;;;;;9.47;9.17;;;18.60;87.60;;;;;;4952523;29;20527;-68
2021/05/14 10:05:37;;;;;;;10.20;9.80;;;18.50;88.70;;;;;;4952841;29;20492;-68
2021/05/14 10:08:05;;;;;;;9.07;8.77;;;18.10;90.10;;;;;;4952885;29;20610;-68
2021/05/14 10:10:35;;;;;;;8.97;8.67;;;17.80;90.60;;;;;;4952776;29;20528;-68
2021/05/14 10:13:01;;;;;;;9.50;9.10;;;17.70;91.90;;;;;;4952511;29;20821;-69
2021/05/14 10:15:28;;;;;;;9.97;9.30;;;17.90;91.20;;;;;;4952925;29;20452;-68
2021/05/14 10:17:54;;;;;;;9.40;9.10;;;18.00;91.70;;;;;;4952708;29;20543;-69
2021/05/14 10:20:26;;;;;;;9.30;9.00;;;18.20;91.00;;;;;;4953007;29;20457;-69
2021/05/14 10:22:54;;;;;;;9.50;9.20;;;18.40;89.20;;;;;;4952689;29;20472;-69
2021/05/14 10:25:44;;;;;;;9.70;9.30;;;18.40;87.80;;;;;;4952643;29;20489;-69
2021/05/14 10:28:12;;;;;;;9.10;8.80;;;18.60;85.80;;;;;;4952589;29;20456;-69
2021/05/14 10:31:19;;;;;;;9.80;9.40;;;18.90;86.00;;;;;;4952669;29;20480;-69
2021/05/14 10:33:47;;;;;;;9.13;8.83;;;19.10;85.50;;;;;;4952843;29;20471;-69
2021/05/14 10:36:49;;;;;;;9.47;9.17;;;19.50;84.90;;;;;;4952525;29;20971;-69
2021/05/14 10:39:18;;;;;;;9.90;9.60;;;20.20;83.20;;;;;;4955974;29;20981;-69
2021/05/14 10:41:57;;;;;;;9.60;9.00;;;20.20;82.20;;;;;;4954617;28;20479;-69
2021/05/14 10:44:50;;;;;;;10.07;9.53;;;20.00;83.20;;;;;;4956424;29;20457;-69
2021/05/14 10:47:47;;;;;;;10.20;9.80;;;19.60;84.80;;;;;;4956680;28;20456;-70
2021/05/14 10:50:30;;;;;;;10.27;9.97;;;18.50;85.30;;;;;;4956539;29;20470;-69
2021/05/14 10:53:26;;;;;;;9.53;9.20;;;17.80;87.50;;;;;;4956406;29;20448;-68
2021/05/14 10:55:52;;;;;;;12.20;11.80;;;17.30;91.80;;;;;;4956318;29;20555;-68
2021/05/14 10:58:49;;;;;;;12.43;12.03;;;17.10;94.30;;;;;;4956508;29;20444;-68
2021/05/14 11:01:33;;;;;;;13.90;13.50;;;16.70;99.20;;;;;;4897219;29;20458;-69
2021/05/14 11:04:00;;;;;;;20.17;19.47;;;16.20;99.90;;;;;;4949056;28;20460;-72
2021/05/14 11:06:27;;;;;;;26.10;25.17;;;16.00;99.90;;;;;;4956278;28;20456;-72
2021/05/14 11:09:02;;;;;;;28.70;27.60;;;15.70;99.90;;;;;;4956011;28;20453;-75
2021/05/14 11:11:28;;;;;;;27.60;26.60;;;16.10;99.90;;;;;;4956194;28;20864;-73
2021/05/14 11:13:55;;;;;;;21.73;21.03;;;16.80;99.90;;;;;;4956093;28;20452;-73
2021/05/14 11:16:46;;;;;;;11.90;11.50;;;17.50;99.90;;;;;;4956210;29;20448;-72
2021/05/14 11:19:15;;;;;;;12.70;12.30;;;18.50;99.90;;;;;;4956031;29;20440;-71
2021/05/14 11:22:00;;;;;;;12.90;12.50;;;20.50;99.70;;;;;;4955926;29;20475;-70
2021/05/14 11:24:32;;;;;;;13.77;13.30;;;22.30;94.90;;;;;;4955843;29;20567;-70
2021/05/14 11:27:08;;;;;;;13.40;13.00;;;24.20;91.50;;;;;;4955755;29;20456;-71
2021/05/14 11:29:41;;;;;;;14.23;13.73;;;25.00;87.00;;;;;;4955945;29;20444;-70
2021/05/14 11:32:19;;;;;;;13.00;12.50;;;25.90;81.60;;;;;;4955753;29;20638;-71
2021/05/14 11:34:53;;;;;;;12.93;12.53;;;27.40;75.00;;;;;;4955782;29;20460;-71
2021/05/14 11:37:20;;;;;;;13.77;13.27;;;27.20;70.30;;;;;;4955691;29;20464;-70
2021/05/14 11:39:47;;;;;;;13.30;12.90;;;27.40;64.50;;;;;;4955714;29;20451;-70
2021/05/14 11:42:18;;;;;;;13.07;12.67;;;26.20;65.80;;;;;;4953620;29;20459;-70
2021/05/14 11:44:58;;;;;;;12.83;12.43;;;27.40;66.90;;;;;;4953469;29;20520;-70
2021/05/14 11:47:25;;;;;;;13.00;12.50;;;25.40;66.20;;;;;;4955297;29;20463;-69
2021/05/14 11:49:51;;;;;;;11.57;11.17;;;23.90;71.10;;;;;;4953183;28;20827;-69
2021/05/14 11:52:31;;;;;;;12.20;11.80;;;22.80;74.80;;;;;;4955118;29;21005;-68
2021/05/14 11:55:06;;;;;;;11.43;11.03;;;21.50;75.60;;;;;;4955322;29;20548;-68
2021/05/14 11:57:32;;;;;;;11.73;11.33;;;21.50;78.80;;;;;;4953392;28;21765;-68
2021/05/14 11:59:59;;;;;;;11.73;11.33;;;22.60;75.00;;;;;;4955189;28;20467;-68
2021/05/14 12:02:41;;;;;;;10.57;10.27;;;23.60;71.00;;;;;;4954908;28;20453;-68
2021/05/14 12:05:10;;;;;;;11.57;11.27;;;24.20;69.40;;;;;;4954602;28;20437;-68
2021/05/14 12:07:36;;;;;;;11.70;11.40;;;25.00;66.00;;;;;;4954927;28;20814;-69
2021/05/14 12:10:05;;;;;;;11.63;11.33;;;25.30;62.80;;;;;;4955233;28;20455;-69
2021/05/14 12:12:31;;;;;;;12.43;12.03;;;25.30;63.90;;;;;;4955080;28;20492;-68
2021/05/14 12:15:14;;;;;;;11.50;11.10;;;26.50;61.20;;;;;;4955251;28;20818;-69
2021/05/14 12:17:41;;;;;;;10.83;10.33;;;25.90;58.10;;;;;;4955158;29;20595;-69
2021/05/14 12:20:24;;;;;;;11.67;11.37;;;25.00;58.30;;;;;;4955200;29;20460;-69
2021/05/14 12:22:53;;;;;;;11.90;11.50;;;24.30;59.40;;;;;;4955258;29;20555;-69
2021/05/14 12:25:21;;;;;;;12.20;11.70;;;24.80;59.70;;;;;;4955063;28;20517;-69
2021/05/14 12:27:48;;;;;;;12.00;11.60;;;25.60;57.30;;;;;;4955090;28;20899;-69
2021/05/14 12:30:16;;;;;;;11.43;11.07;;;26.50;55.60;;;;;;4954734;28;20594;-69
2021/05/14 12:32:54;;;;;;;12.00;11.60;;;26.50;54.30;;;;;;4954505;28;20539;-68
2021/05/14 12:35:21;;;;;;;12.53;11.93;;;27.10;53.20;;;;;;4955045;29;20460;-69
2021/05/14 12:37:55;;;;;;;11.70;11.30;;;26.90;52.70;;;;;;4954739;29;20510;-69
2021/05/14 12:40:31;;;;;;;11.50;11.20;;;26.50;52.80;;;;;;4954800;29;20452;-69
2021/05/14 12:43:08;;;;;;;11.40;11.10;;;26.10;53.90;;;;;;4954692;29;20463;-69